Time;durP1;ratioP1;P1;durP2;ratioP2;P2;SDS_P1;SDS_P2;PMS_P1;PMS_P2;Temp;Humidity;BMP_temperature;BMP_pressure;BME280_temperature;BME280_humidity;BME280_pressure;Samples;Min_cycle;Max_cycle;Signal;HPM_P1;HPM_P2
2023/09/12 00:02:16;;;;;;;18.25;8.85;;;;;;;;;;5054563;28;20215;-47
2023/09/12 00:04:44;;;;;;;16.42;8.73;;;;;;;;;;5054343;28;20661;-53
2023/09/12 00:07:11;;;;;;;22.40;11.73;;;;;;;;;;5054483;28;20299;-56
2023/09/12 00:09:38;;;;;;;20.52;10.65;;;;;;;;;;5054488;28;20200;-52
2023/09/12 00:12:06;;;;;;;23.45;10.70;;;;;;;;;;5054368;28;20253;-56
2023/09/12 00:14:33;;;;;;;26.65;14.48;;;;;;;;;;5054182;28;20222;-59
2023/09/12 00:17:00;;;;;;;25.42;13.25;;;;;;;;;;5053025;28;20267;-58
2023/09/12 00:19:28;;;;;;;39.97;17.90;;;;;;;;;;5053890;28;20208;-55
2023/09/12 00:21:55;;;;;;;37.67;19.48;;;;;;;;;;5054321;28;20246;-54
2023/09/12 00:24:22;;;;;;;33.88;19.75;;;;;;;;;;5054109;28;20204;-57
2023/09/12 00:26:49;;;;;;;32.00;16.02;;;;;;;;;;5054142;28;20311;-58
2023/09/12 00:29:17;;;;;;;27.80;15.15;;;;;;;;;;5053967;28;20208;-56
2023/09/12 00:31:45;;;;;;;26.63;12.38;;;;;;;;;;5053078;28;20200;-57
2023/09/12 00:34:17;;;;;;;23.20;11.38;;;;;;;;;;5054084;28;20208;-56
2023/09/12 00:36:44;;;;;;;23.73;11.18;;;;;;;;;;5053771;28;20194;-57
2023/09/12 00:39:11;;;;;;;17.02;10.05;;;;;;;;;;5054044;28;20211;-57
2023/09/12 00:41:38;;;;;;;22.40;10.88;;;;;;;;;;5053802;28;20266;-58
2023/09/12 00:44:06;;;;;;;18.77;9.45;;;;;;;;;;5052444;28;20684;-57
2023/09/12 00:46:33;;;;;;;16.80;10.48;;;;;;;;;;5053363;28;20656;-57
2023/09/12 00:49:02;;;;;;;14.98;8.93;;;;;;;;;;5052685;28;20282;-58
2023/09/12 00:51:31;;;;;;;15.35;8.93;;;;;;;;;;5036053;28;20608;-57
2023/09/12 00:53:58;;;;;;;17.13;9.90;;;;;;;;;;5052613;28;20208;-59
2023/09/12 00:56:26;;;;;;;18.17;9.38;;;;;;;;;;5053504;28;20262;-57
2023/09/12 00:58:54;;;;;;;18.92;9.15;;;;;;;;;;5052190;28;20730;-55
2023/09/12 01:01:21;;;;;;;17.98;10.63;;;;;;;;;;5052462;28;20222;-52
2023/09/12 01:03:49;;;;;;;16.38;9.43;;;;;;;;;;5053654;28;20200;-57
2023/09/12 01:06:19;;;;;;;13.43;9.52;;;;;;;;;;5053249;28;20274;-57
2023/09/12 01:08:47;;;;;;;17.60;10.23;;;;;;;;;;5053378;28;20222;-59
2023/09/12 01:11:14;;;;;;;14.57;9.02;;;;;;;;;;5053246;28;20231;-56
2023/09/12 01:13:41;;;;;;;16.08;9.45;;;;;;;;;;5052102;28;20200;-56
2023/09/12 01:16:08;;;;;;;15.32;9.50;;;;;;;;;;5053145;28;20259;-57
2023/09/12 01:18:36;;;;;;;16.90;9.23;;;;;;;;;;5053396;28;20258;-57
2023/09/12 01:21:25;;;;;;;18.27;9.10;;;;;;;;;;5053335;28;20283;-57
2023/09/12 01:24:20;;;;;;;14.85;9.32;;;;;;;;;;5051859;28;20207;-56
2023/09/12 01:27:13;;;;;;;19.83;9.00;;;;;;;;;;5035858;28;20224;-58
2023/09/12 01:29:43;;;;;;;18.83;10.25;;;;;;;;;;5046714;28;20204;-56
2023/09/12 01:32:10;;;;;;;17.98;10.05;;;;;;;;;;5051971;28;20277;-54
2023/09/12 01:34:38;;;;;;;18.73;10.23;;;;;;;;;;5053326;28;20207;-56
2023/09/12 01:37:05;;;;;;;16.02;10.38;;;;;;;;;;5053311;28;20214;-56
2023/09/12 01:39:32;;;;;;;14.45;10.27;;;;;;;;;;5052109;28;20257;-52
2023/09/12 01:42:00;;;;;;;21.30;10.35;;;;;;;;;;5052198;28;20200;-54
2023/09/12 01:44:28;;;;;;;16.58;10.05;;;;;;;;;;5054786;28;20208;-56
2023/09/12 01:46:57;;;;;;;17.15;9.85;;;;;;;;;;5055646;28;20750;-56
2023/09/12 01:49:27;;;;;;;19.15;10.05;;;;;;;;;;5072580;28;20211;-52
2023/09/12 01:51:54;;;;;;;19.65;10.40;;;;;;;;;;5072584;28;20208;-57
2023/09/12 01:54:22;;;;;;;16.77;9.85;;;;;;;;;;5055782;28;20208;-56
2023/09/12 01:56:50;;;;;;;17.58;9.80;;;;;;;;;;5056945;28;20282;-52
2023/09/12 01:59:19;;;;;;;19.88;11.40;;;;;;;;;;5055637;28;20196;-53
2023/09/12 02:01:45;;;;;;;15.95;9.88;;;;;;;;;;5055793;28;20203;-58
2023/09/12 02:04:13;;;;;;;16.23;10.10;;;;;;;;;;5056560;28;20657;-53
2023/09/12 02:06:40;;;;;;;14.93;9.77;;;;;;;;;;5055414;28;20251;-56
2023/09/12 02:09:07;;;;;;;18.70;10.60;;;;;;;;;;5056566;28;20215;-57
2023/09/12 02:11:34;;;;;;;15.73;9.82;;;;;;;;;;5056831;28;20242;-56
2023/09/12 02:14:02;;;;;;;22.35;10.57;;;;;;;;;;5055213;28;20215;-53
2023/09/12 02:16:31;;;;;;;20.17;10.93;;;;;;;;;;5056469;28;20708;-56
2023/09/12 02:18:58;;;;;;;18.08;9.77;;;;;;;;;;5056315;28;20654;-56
2023/09/12 02:21:25;;;;;;;24.95;10.73;;;;;;;;;;5056256;28;20216;-57
2023/09/12 02:23:53;;;;;;;16.60;10.05;;;;;;;;;;5055177;28;20211;-53
2023/09/12 02:26:20;;;;;;;19.40;9.77;;;;;;;;;;5056052;28;20220;-56
2023/09/12 02:28:47;;;;;;;15.55;9.88;;;;;;;;;;5056143;28;20204;-55
2023/09/12 02:31:14;;;;;;;17.75;10.20;;;;;;;;;;5056345;28;20247;-55
2023/09/12 02:33:42;;;;;;;15.13;10.43;;;;;;;;;;5056054;28;20212;-57
2023/09/12 02:36:09;;;;;;;18.23;10.30;;;;;;;;;;5056011;28;20661;-55
2023/09/12 02:38:36;;;;;;;16.75;9.93;;;;;;;;;;5054828;28;20211;-57
2023/09/12 02:41:03;;;;;;;22.05;9.85;;;;;;;;;;5054845;28;20203;-54
2023/09/12 02:43:32;;;;;;;14.40;9.55;;;;;;;;;;5054997;28;20207;-55
2023/09/12 02:45:59;;;;;;;20.50;10.10;;;;;;;;;;5054908;28;20200;-55
2023/09/12 02:48:27;;;;;;;19.70;10.02;;;;;;;;;;5054838;28;20235;-53
2023/09/12 02:50:54;;;;;;;15.63;9.52;;;;;;;;;;5055997;28;20230;-59
2023/09/12 02:53:21;;;;;;;14.45;9.30;;;;;;;;;;5056124;28;20208;-56
2023/09/12 02:55:48;;;;;;;16.10;9.52;;;;;;;;;;5054779;28;20664;-55
2023/09/12 02:58:15;;;;;;;13.85;9.45;;;;;;;;;;5054807;28;20216;-56
2023/09/12 03:00:42;;;;;;;13.23;9.82;;;;;;;;;;5055549;28;20200;-56
2023/09/12 03:03:10;;;;;;;16.83;10.45;;;;;;;;;;5055933;28;20204;-55
2023/09/12 03:05:38;;;;;;;19.73;10.32;;;;;;;;;;5071057;28;20223;-56
2023/09/12 03:08:05;;;;;;;17.50;9.48;;;;;;;;;;5054180;28;20232;-55
2023/09/12 03:10:33;;;;;;;19.13;10.65;;;;;;;;;;5055412;28;20549;-56
2023/09/12 03:13:00;;;;;;;18.10;10.57;;;;;;;;;;5055639;28;20608;-56
2023/09/12 03:15:27;;;;;;;21.33;11.15;;;;;;;;;;5070617;28;20260;-55
2023/09/12 03:17:54;;;;;;;18.48;11.38;;;;;;;;;;5054633;28;20219;-57
2023/09/12 03:20:21;;;;;;;18.00;11.15;;;;;;;;;;5055181;28;20202;-57
2023/09/12 03:22:49;;;;;;;17.77;10.77;;;;;;;;;;5053800;28;20200;-54
2023/09/12 03:25:16;;;;;;;17.02;10.30;;;;;;;;;;5055249;28;20204;-55
2023/09/12 03:27:43;;;;;;;18.58;11.52;;;;;;;;;;5070277;28;20232;-56
2023/09/12 03:30:10;;;;;;;23.58;11.20;;;;;;;;;;5070849;28;20219;-54
2023/09/12 03:32:38;;;;;;;18.05;10.50;;;;;;;;;;5068546;28;20200;-56
2023/09/12 03:35:05;;;;;;;25.00;10.77;;;;;;;;;;5073816;28;20226;-57
2023/09/12 03:37:33;;;;;;;16.65;10.93;;;;;;;;;;5072989;28;20767;-52
2023/09/12 03:40:00;;;;;;;18.77;11.43;;;;;;;;;;5070611;28;20222;-53
2023/09/12 03:42:27;;;;;;;16.83;10.98;;;;;;;;;;5072192;28;20199;-57
2023/09/12 03:45:08;;;;;;;14.93;10.55;;;;;;;;;;5073183;28;20253;-50
2023/09/12 03:47:35;;;;;;;25.67;11.07;;;;;;;;;;5072429;28;20219;-56
2023/09/12 03:50:03;;;;;;;18.25;10.68;;;;;;;;;;5068295;28;20204;-54
2023/09/12 03:52:31;;;;;;;20.17;11.52;;;;;;;;;;5071098;28;20203;-56
2023/09/12 03:55:00;;;;;;;16.73;11.32;;;;;;;;;;5071667;28;20206;-58
2023/09/12 03:57:28;;;;;;;18.08;11.63;;;;;;;;;;5072707;28;20195;-55
2023/09/12 03:59:55;;;;;;;18.30;11.02;;;;;;;;;;5069260;28;20214;-57
2023/09/12 04:02:23;;;;;;;23.15;11.70;;;;;;;;;;5067947;28;20614;-58
2023/09/12 04:04:51;;;;;;;20.25;11.40;;;;;;;;;;5066768;28;20268;-55
2023/09/12 04:07:19;;;;;;;18.50;11.20;;;;;;;;;;5071605;28;20230;-57
2023/09/12 04:09:46;;;;;;;17.80;12.13;;;;;;;;;;5072099;28;20230;-56
2023/09/12 04:12:13;;;;;;;19.10;11.48;;;;;;;;;;5071379;28;20305;-53
2023/09/12 04:14:40;;;;;;;17.73;12.00;;;;;;;;;;5073512;28;20226;-59
2023/09/12 04:17:08;;;;;;;18.73;11.38;;;;;;;;;;5071230;28;20241;-59
2023/09/12 04:19:36;;;;;;;19.20;11.23;;;;;;;;;;5072148;28;20226;-55
2023/09/12 04:22:04;;;;;;;22.45;12.48;;;;;;;;;;5071958;28;20227;-55
2023/09/12 04:24:31;;;;;;;20.63;12.40;;;;;;;;;;5073233;28;20234;-58
2023/09/12 04:26:59;;;;;;;20.83;12.45;;;;;;;;;;5071554;28;20236;-57
2023/09/12 04:29:27;;;;;;;16.60;12.15;;;;;;;;;;5038089;28;20226;-58
2023/09/12 04:31:59;;;;;;;17.88;11.95;;;;;;;;;;5068105;28;20622;-58
2023/09/12 04:34:26;;;;;;;19.15;12.63;;;;;;;;;;5052071;28;20286;-58
2023/09/12 04:36:54;;;;;;;16.73;12.25;;;;;;;;;;5052839;28;20224;-57
2023/09/12 04:39:21;;;;;;;18.75;12.23;;;;;;;;;;5053850;28;20223;-58
2023/09/12 04:41:49;;;;;;;22.02;12.52;;;;;;;;;;5071183;28;20215;-57
2023/09/12 04:44:16;;;;;;;19.42;11.80;;;;;;;;;;5072630;28;20223;-59
2023/09/12 04:46:43;;;;;;;20.40;12.02;;;;;;;;;;5069584;28;20219;-56
2023/09/12 04:49:10;;;;;;;20.98;13.38;;;;;;;;;;5070911;28;20223;-58
2023/09/12 04:51:38;;;;;;;19.88;12.63;;;;;;;;;;5063108;28;20855;-59
2023/09/12 04:54:05;;;;;;;20.27;12.35;;;;;;;;;;5050022;28;20228;-58
2023/09/12 04:56:32;;;;;;;22.10;13.63;;;;;;;;;;5050979;28;20228;-56
2023/09/12 04:59:00;;;;;;;25.17;12.68;;;;;;;;;;5050085;28;20224;-58
2023/09/12 05:01:27;;;;;;;17.40;12.20;;;;;;;;;;5048922;28;20219;-58
2023/09/12 05:03:54;;;;;;;20.45;12.82;;;;;;;;;;5050175;28;20228;-58
2023/09/12 05:06:22;;;;;;;26.33;12.48;;;;;;;;;;5050234;28;20224;-55
2023/09/12 05:08:49;;;;;;;18.58;12.52;;;;;;;;;;5052077;28;20235;-54
2023/09/12 05:11:17;;;;;;;26.15;11.95;;;;;;;;;;5051166;28;20235;-59
2023/09/12 05:13:44;;;;;;;16.63;12.02;;;;;;;;;;5051440;28;20273;-59
2023/09/12 05:16:11;;;;;;;20.80;12.15;;;;;;;;;;5051818;28;20247;-58
2023/09/12 05:18:38;;;;;;;20.10;12.60;;;;;;;;;;5051840;28;20212;-59
2023/09/12 05:21:06;;;;;;;22.88;12.77;;;;;;;;;;5072763;28;20203;-59
2023/09/12 05:23:33;;;;;;;19.20;12.38;;;;;;;;;;5071078;28;20203;-58
2023/09/12 05:26:01;;;;;;;21.35;12.00;;;;;;;;;;5072686;28;20207;-57
2023/09/12 05:28:28;;;;;;;25.70;12.85;;;;;;;;;;5072311;28;20250;-59
2023/09/12 05:30:55;;;;;;;25.08;12.35;;;;;;;;;;5072020;28;20238;-58
2023/09/12 05:33:22;;;;;;;20.08;13.27;;;;;;;;;;5073523;28;20591;-58
2023/09/12 05:35:50;;;;;;;19.27;12.75;;;;;;;;;;5072043;28;20203;-59
2023/09/12 05:38:17;;;;;;;20.05;11.85;;;;;;;;;;5071834;28;20682;-59
2023/09/12 05:40:44;;;;;;;20.00;11.68;;;;;;;;;;5072999;28;20203;-58
2023/09/12 05:43:11;;;;;;;21.00;12.93;;;;;;;;;;5071874;28;20723;-59
2023/09/12 05:45:39;;;;;;;24.80;11.50;;;;;;;;;;5071928;28;20199;-58
2023/09/12 05:48:06;;;;;;;22.25;12.65;;;;;;;;;;5073108;28;20314;-60
2023/09/12 05:50:36;;;;;;;20.05;12.95;;;;;;;;;;5072952;28;20245;-59
2023/09/12 05:53:04;;;;;;;23.70;13.27;;;;;;;;;;5071819;28;20806;-56
2023/09/12 05:55:31;;;;;;;22.88;12.95;;;;;;;;;;5071960;28;20203;-57
2023/09/12 05:57:58;;;;;;;21.38;13.52;;;;;;;;;;5071705;28;20656;-57
2023/09/12 06:00:26;;;;;;;20.40;12.98;;;;;;;;;;5071810;28;20199;-58
2023/09/12 06:02:53;;;;;;;23.30;12.80;;;;;;;;;;5071676;28;20202;-58
2023/09/12 06:05:20;;;;;;;17.75;11.68;;;;;;;;;;5072751;28;20199;-59
2023/09/12 06:07:47;;;;;;;22.63;13.80;;;;;;;;;;5073347;28;20223;-57
2023/09/12 06:10:14;;;;;;;20.95;11.88;;;;;;;;;;5071553;28;20195;-57
2023/09/12 06:12:42;;;;;;;20.65;11.30;;;;;;;;;;5072894;28;20293;-57
2023/09/12 06:15:09;;;;;;;25.58;12.27;;;;;;;;;;5072586;28;20795;-58
2023/09/12 06:17:37;;;;;;;21.80;12.10;;;;;;;;;;5072664;28;20198;-55
2023/09/12 06:20:07;;;;;;;19.70;11.88;;;;;;;;;;5072691;28;20206;-55
2023/09/12 06:22:35;;;;;;;24.95;12.40;;;;;;;;;;5072964;28;20203;-57
2023/09/12 06:25:03;;;;;;;19.55;11.35;;;;;;;;;;5072713;28;20560;-58
2023/09/12 06:27:31;;;;;;;19.88;12.15;;;;;;;;;;5072798;28;20219;-57
2023/09/12 06:29:59;;;;;;;20.50;12.18;;;;;;;;;;5072906;28;20204;-57
2023/09/12 06:32:26;;;;;;;19.15;11.52;;;;;;;;;;5076378;28;20211;-55
2023/09/12 06:34:53;;;;;;;21.13;12.45;;;;;;;;;;5076578;28;20203;-58
2023/09/12 06:37:20;;;;;;;21.92;11.75;;;;;;;;;;5076437;28;20213;-57
2023/09/12 06:39:51;;;;;;;19.15;12.05;;;;;;;;;;5076268;28;20261;-58
2023/09/12 06:42:18;;;;;;;18.05;11.38;;;;;;;;;;5076343;28;20203;-57
2023/09/12 06:44:45;;;;;;;22.70;11.35;;;;;;;;;;5075933;28;20199;-57
2023/09/12 06:47:13;;;;;;;19.63;10.75;;;;;;;;;;5076159;28;20203;-55
2023/09/12 06:49:40;;;;;;;22.92;12.60;;;;;;;;;;5076096;28;20206;-57
2023/09/12 06:52:09;;;;;;;18.52;12.32;;;;;;;;;;5075950;28;20199;-57
2023/09/12 06:54:37;;;;;;;18.58;11.65;;;;;;;;;;5075934;28;20203;-56
2023/09/12 06:57:04;;;;;;;17.48;12.00;;;;;;;;;;5057872;28;20224;-56
2023/09/12 06:59:31;;;;;;;19.90;11.45;;;;;;;;;;5063417;28;20723;-55
2023/09/12 07:01:58;;;;;;;18.52;10.73;;;;;;;;;;5074841;28;20629;-58
2023/09/12 07:04:26;;;;;;;19.55;11.80;;;;;;;;;;5074868;28;20712;-56
2023/09/12 07:06:53;;;;;;;19.17;11.88;;;;;;;;;;5054444;28;20231;-56
2023/09/12 07:09:21;;;;;;;18.35;11.48;;;;;;;;;;5070123;28;20234;-55
2023/09/12 07:11:48;;;;;;;20.42;11.38;;;;;;;;;;5073933;28;20239;-59
2023/09/12 07:14:15;;;;;;;24.50;11.57;;;;;;;;;;5074582;28;20231;-55
2023/09/12 07:16:42;;;;;;;20.63;10.35;;;;;;;;;;5074394;28;20235;-55
2023/09/12 07:19:10;;;;;;;17.55;10.93;;;;;;;;;;5074606;28;20695;-56
2023/09/12 07:21:37;;;;;;;19.70;11.07;;;;;;;;;;5074119;28;20223;-56
2023/09/12 07:24:05;;;;;;;15.98;9.98;;;;;;;;;;5074858;28;20281;-56
2023/09/12 07:26:32;;;;;;;17.50;10.18;;;;;;;;;;5073591;28;20300;-51
2023/09/12 07:29:02;;;;;;;20.48;10.20;;;;;;;;;;5074448;28;20242;-54
2023/09/12 07:31:29;;;;;;;19.83;10.15;;;;;;;;;;5073982;28;20313;-56
2023/09/12 07:33:57;;;;;;;19.27;10.60;;;;;;;;;;5074242;28;20219;-58
2023/09/12 07:36:24;;;;;;;21.10;10.32;;;;;;;;;;5074593;28;20227;-57
2023/09/12 07:38:51;;;;;;;18.75;9.80;;;;;;;;;;5073854;28;20241;-58
2023/09/12 07:41:19;;;;;;;16.77;10.13;;;;;;;;;;5073235;28;20230;-56
2023/09/12 07:43:46;;;;;;;17.38;9.13;;;;;;;;;;5073694;28;20223;-58
2023/09/12 07:46:13;;;;;;;15.32;9.68;;;;;;;;;;5074193;28;20318;-55
2023/09/12 07:48:40;;;;;;;16.42;9.90;;;;;;;;;;5073485;28;20239;-56
2023/09/12 07:51:15;;;;;;;16.88;9.38;;;;;;;;;;5073958;28;20219;-58
2023/09/12 07:53:43;;;;;;;13.52;9.18;;;;;;;;;;5073673;28;20730;-58
2023/09/12 07:56:11;;;;;;;19.00;10.10;;;;;;;;;;5072468;28;20224;-55
2023/09/12 07:58:38;;;;;;;17.13;9.35;;;;;;;;;;5073711;28;20577;-56
2023/09/12 08:01:09;;;;;;;15.68;9.40;;;;;;;;;;5073731;28;20309;-56
2023/09/12 08:03:39;;;;;;;15.05;9.35;;;;;;;;;;5073433;28;20219;-58
2023/09/12 08:06:07;;;;;;;14.95;8.70;;;;;;;;;;5073633;28;20219;-58
2023/09/12 08:08:34;;;;;;;12.70;8.43;;;;;;;;;;5073353;28;20238;-57
2023/09/12 08:11:01;;;;;;;19.45;9.65;;;;;;;;;;5073330;28;20299;-56
2023/09/12 08:13:30;;;;;;;15.43;9.10;;;;;;;;;;5073534;28;20223;-56
2023/09/12 08:15:57;;;;;;;16.30;9.18;;;;;;;;;;5073477;28;20235;-51
2023/09/12 08:18:28;;;;;;;17.85;9.38;;;;;;;;;;5072150;28;20234;-57
2023/09/12 08:20:55;;;;;;;16.85;9.10;;;;;;;;;;5071993;28;20215;-58
2023/09/12 08:23:22;;;;;;;12.82;8.70;;;;;;;;;;5073173;28;20238;-58
2023/09/12 08:25:49;;;;;;;22.40;8.93;;;;;;;;;;5072718;28;20215;-56
2023/09/12 08:28:17;;;;;;;16.38;7.88;;;;;;;;;;5072940;28;20231;-58
2023/09/12 08:30:46;;;;;;;13.85;7.82;;;;;;;;;;5073214;28;20230;-55
2023/09/12 08:33:13;;;;;;;21.60;7.95;;;;;;;;;;5072966;28;20223;-56
2023/09/12 08:35:40;;;;;;;15.32;7.85;;;;;;;;;;5072815;28;20227;-56
2023/09/12 08:38:08;;;;;;;11.23;7.80;;;;;;;;;;5072812;28;20231;-57
2023/09/12 08:40:35;;;;;;;11.07;7.45;;;;;;;;;;5072354;28;20230;-57
2023/09/12 08:43:06;;;;;;;12.73;8.02;;;;;;;;;;5073037;28;20227;-58
2023/09/12 08:45:35;;;;;;;18.88;8.07;;;;;;;;;;5072509;28;20215;-58
2023/09/12 08:48:03;;;;;;;13.65;7.05;;;;;;;;;;5072937;28;20231;-57
2023/09/12 08:50:33;;;;;;;14.13;7.10;;;;;;;;;;5071627;28;20618;-56
2023/09/12 08:53:01;;;;;;;10.88;6.90;;;;;;;;;;5072521;28;20273;-57
2023/09/12 08:55:35;;;;;;;11.55;7.20;;;;;;;;;;5072179;28;20226;-56
2023/09/12 08:58:04;;;;;;;13.35;7.03;;;;;;;;;;5072777;28;20230;-58
2023/09/12 09:00:32;;;;;;;15.52;7.85;;;;;;;;;;5072764;28;20228;-57
2023/09/12 09:03:00;;;;;;;11.70;7.05;;;;;;;;;;5071887;28;20246;-57
2023/09/12 09:05:28;;;;;;;11.65;6.70;;;;;;;;;;5071410;28;20710;-57
2023/09/12 09:07:57;;;;;;;13.88;7.28;;;;;;;;;;5072610;28;20238;-55
2023/09/12 09:10:24;;;;;;;11.80;7.38;;;;;;;;;;5072326;28;20306;-57
2023/09/12 09:13:12;;;;;;;12.77;7.13;;;;;;;;;;5072718;28;20691;-58
2023/09/12 09:15:41;;;;;;;12.82;7.22;;;;;;;;;;5072309;28;20231;-55
2023/09/12 09:18:11;;;;;;;9.10;6.38;;;;;;;;;;5072844;28;20223;-57
2023/09/12 09:20:40;;;;;;;11.50;6.50;;;;;;;;;;5071303;28;20222;-55
2023/09/12 09:23:10;;;;;;;12.50;6.50;;;;;;;;;;5072747;28;20223;-58
2023/09/12 09:25:42;;;;;;;10.88;6.20;;;;;;;;;;5071879;28;20313;-52
2023/09/12 09:28:17;;;;;;;10.75;6.10;;;;;;;;;;5072723;28;20223;-55
2023/09/12 09:30:50;;;;;;;12.15;6.72;;;;;;;;;;5072119;28;20666;-55
2023/09/12 09:33:18;;;;;;;14.30;6.22;;;;;;;;;;5072746;28;20720;-56
2023/09/12 09:35:47;;;;;;;12.88;5.65;;;;;;;;;;5071933;28;20227;-59
2023/09/12 09:38:16;;;;;;;13.95;6.32;;;;;;;;;;5072364;28;20230;-55
2023/09/12 09:40:44;;;;;;;9.43;6.63;;;;;;;;;;5070049;28;20230;-58
2023/09/12 09:43:14;;;;;;;8.73;5.97;;;;;;;;;;5072535;28;20231;-56
2023/09/12 09:45:45;;;;;;;13.38;6.22;;;;;;;;;;5070957;28;20234;-58
2023/09/12 09:48:21;;;;;;;11.70;6.30;;;;;;;;;;5072652;28;20239;-55
2023/09/12 09:50:48;;;;;;;10.13;6.13;;;;;;;;;;5072001;28;20284;-57
2023/09/12 09:53:16;;;;;;;12.25;6.40;;;;;;;;;;5072259;28;20223;-55
2023/09/12 09:55:43;;;;;;;10.20;6.38;;;;;;;;;;5071458;28;20314;-58
2023/09/12 09:58:16;;;;;;;10.32;6.85;;;;;;;;;;5072560;28;20383;-58
2023/09/12 10:00:44;;;;;;;15.30;6.32;;;;;;;;;;5071711;28;20708;-56
2023/09/12 10:03:13;;;;;;;12.27;6.07;;;;;;;;;;5072529;28;20224;-57
2023/09/12 10:05:41;;;;;;;12.60;6.75;;;;;;;;;;5075009;28;20258;-58
2023/09/12 10:08:10;;;;;;;9.85;6.53;;;;;;;;;;5076030;28;20706;-57
2023/09/12 10:10:38;;;;;;;10.98;6.72;;;;;;;;;;5073821;28;20230;-55
2023/09/12 10:13:05;;;;;;;12.82;6.72;;;;;;;;;;5076067;28;20222;-58
2023/09/12 10:15:34;;;;;;;14.73;6.72;;;;;;;;;;5074614;28;20238;-58
2023/09/12 10:18:05;;;;;;;11.98;6.78;;;;;;;;;;5074683;28;20223;-58
2023/09/12 10:20:39;;;;;;;10.32;7.05;;;;;;;;;;5074239;28;20250;-53
2023/09/12 10:23:21;;;;;;;10.40;6.53;;;;;;;;;;5057053;28;20231;-56
2023/09/12 10:25:49;;;;;;;16.02;7.35;;;;;;;;;;5071989;28;20298;-59
2023/09/12 10:28:17;;;;;;;8.75;6.38;;;;;;;;;;5075774;28;20228;-54
2023/09/12 10:30:44;;;;;;;12.38;7.22;;;;;;;;;;5074290;28;20243;-57
2023/09/12 10:33:13;;;;;;;10.68;6.47;;;;;;;;;;5075493;28;20219;-58
2023/09/12 10:35:40;;;;;;;10.38;7.03;;;;;;;;;;5074333;28;20315;-57
2023/09/12 10:38:08;;;;;;;10.30;7.20;;;;;;;;;;5073866;28;20234;-57
2023/09/12 10:40:36;;;;;;;10.77;7.30;;;;;;;;;;5074989;28;20718;-57
2023/09/12 10:43:10;;;;;;;11.57;6.10;;;;;;;;;;5075265;28;20219;-57
2023/09/12 10:45:38;;;;;;;10.13;6.57;;;;;;;;;;5073930;28;20223;-59
2023/09/12 10:48:05;;;;;;;8.00;6.22;;;;;;;;;;5074173;28;20223;-57
2023/09/12 10:50:32;;;;;;;10.95;6.30;;;;;;;;;;5074958;28;20235;-57
2023/09/12 10:53:10;;;;;;;8.95;6.53;;;;;;;;;;5074769;28;20223;-59
2023/09/12 10:55:37;;;;;;;12.73;6.32;;;;;;;;;;5075127;28;20317;-58
2023/09/12 10:58:07;;;;;;;11.48;6.90;;;;;;;;;;5073671;28;20242;-57
2023/09/12 11:00:34;;;;;;;10.07;6.70;;;;;;;;;;5074544;28;20651;-58
2023/09/12 11:03:26;;;;;;;8.70;5.70;;;;;;;;;;5073678;28;20563;-54
2023/09/12 11:05:55;;;;;;;10.75;6.63;;;;;;;;;;5073986;28;20210;-57
2023/09/12 11:08:24;;;;;;;11.15;6.90;;;;;;;;;;5074224;28;20230;-57
2023/09/12 11:11:26;;;;;;;11.65;7.53;;;;;;;;;;5074639;28;20302;-54
2023/09/12 11:14:03;;;;;;;12.13;6.97;;;;;;;;;;5052278;28;20223;-58
2023/09/12 11:16:30;;;;;;;10.40;7.40;;;;;;;;;;5051866;28;20247;-59
2023/09/12 11:19:22;;;;;;;13.23;7.18;;;;;;;;;;5052405;28;20623;-55
2023/09/12 11:21:51;;;;;;;13.40;7.13;;;;;;;;;;5052094;28;20584;-58
2023/09/12 11:24:20;;;;;;;14.88;7.22;;;;;;;;;;5044632;28;20693;-58
2023/09/12 11:26:56;;;;;;;12.60;7.13;;;;;;;;;;5032209;28;20307;-51
2023/09/12 11:29:37;;;;;;;9.48;6.45;;;;;;;;;;5031839;28;20236;-51
2023/09/12 11:32:05;;;;;;;10.90;6.93;;;;;;;;;;5031482;28;20216;-54
2023/09/12 11:34:41;;;;;;;11.63;7.28;;;;;;;;;;5017182;28;20231;-57
2023/09/12 11:37:08;;;;;;;14.65;6.70;;;;;;;;;;5022619;28;20221;-58
2023/09/12 11:39:37;;;;;;;10.23;6.78;;;;;;;;;;4996986;28;20217;-56
2023/09/12 11:42:04;;;;;;;12.48;6.85;;;;;;;;;;5015029;28;20263;-58
2023/09/12 11:44:32;;;;;;;8.95;6.25;;;;;;;;;;5021803;28;20642;-58
2023/09/12 11:47:05;;;;;;;11.18;6.82;;;;;;;;;;4989679;28;20570;-58
2023/09/12 11:49:37;;;;;;;11.57;7.38;;;;;;;;;;5070788;28;20231;-56
2023/09/12 11:52:09;;;;;;;10.40;7.00;;;;;;;;;;5074435;28;20219;-58
2023/09/12 11:54:37;;;;;;;9.38;6.70;;;;;;;;;;5073303;28;20273;-59
2023/09/12 11:57:04;;;;;;;13.65;7.00;;;;;;;;;;5073293;28;20302;-57
2023/09/12 11:59:32;;;;;;;10.45;7.18;;;;;;;;;;5063695;28;20276;-59
2023/09/12 12:01:59;;;;;;;16.73;7.32;;;;;;;;;;5069989;28;20216;-58
2023/09/12 12:04:26;;;;;;;10.13;7.28;;;;;;;;;;5052599;28;20233;-59
2023/09/12 12:06:53;;;;;;;13.32;6.68;;;;;;;;;;5072285;28;20211;-59
2023/09/12 12:09:21;;;;;;;10.23;7.13;;;;;;;;;;5072776;28;20234;-57
2023/09/12 12:11:48;;;;;;;13.02;6.80;;;;;;;;;;5071122;28;20231;-58
2023/09/12 12:14:17;;;;;;;12.40;6.95;;;;;;;;;;5072579;28;20219;-59
2023/09/12 12:16:45;;;;;;;12.38;7.60;;;;;;;;;;5072485;28;20604;-59
2023/09/12 12:19:14;;;;;;;9.30;6.30;;;;;;;;;;5072731;28;20235;-56
2023/09/12 12:21:42;;;;;;;9.77;6.78;;;;;;;;;;5072583;28;20242;-59
2023/09/12 12:24:14;;;;;;;10.50;7.15;;;;;;;;;;5072538;28;20219;-58
2023/09/12 12:26:45;;;;;;;11.65;6.95;;;;;;;;;;5072382;28;20733;-59
2023/09/12 12:29:13;;;;;;;10.80;7.35;;;;;;;;;;5070864;28;20223;-59
2023/09/12 12:31:40;;;;;;;10.70;7.68;;;;;;;;;;5072642;28;20763;-58
2023/09/12 12:34:08;;;;;;;29.10;7.35;;;;;;;;;;5071614;28;20227;-59
2023/09/12 12:36:55;;;;;;;10.88;7.70;;;;;;;;;;5072183;28;20580;-58
2023/09/12 12:39:25;;;;;;;9.88;6.75;;;;;;;;;;5071686;28;20227;-58
2023/09/12 12:41:53;;;;;;;9.32;6.60;;;;;;;;;;5072511;28;20227;-54
2023/09/12 12:44:21;;;;;;;10.70;7.07;;;;;;;;;;5072863;28;20238;-59
2023/09/12 12:46:53;;;;;;;12.23;7.00;;;;;;;;;;5073002;28;20692;-58
2023/09/12 12:49:22;;;;;;;9.50;6.97;;;;;;;;;;5072801;28;20238;-56
2023/09/12 12:51:50;;;;;;;12.18;7.85;;;;;;;;;;5073735;28;20231;-59
2023/09/12 12:54:22;;;;;;;9.10;6.53;;;;;;;;;;5072735;28;20231;-59
2023/09/12 12:56:49;;;;;;;12.50;7.10;;;;;;;;;;5073038;28;20696;-57
2023/09/12 12:59:16;;;;;;;10.75;7.18;;;;;;;;;;5073251;28;20234;-56
2023/09/12 13:01:44;;;;;;;11.05;7.32;;;;;;;;;;5072404;28;20223;-59
2023/09/12 13:04:11;;;;;;;9.82;6.63;;;;;;;;;;5072100;28;20241;-58
2023/09/12 13:06:39;;;;;;;13.68;6.75;;;;;;;;;;5072059;28;20230;-56
2023/09/12 13:09:08;;;;;;;12.93;7.00;;;;;;;;;;5071256;28;20223;-60
2023/09/12 13:11:36;;;;;;;16.45;7.70;;;;;;;;;;5069364;28;20242;-60
2023/09/12 13:14:09;;;;;;;11.85;6.93;;;;;;;;;;5072130;28;20215;-57
2023/09/12 13:16:39;;;;;;;12.35;7.00;;;;;;;;;;5072206;28;20329;-57
2023/09/12 13:19:07;;;;;;;11.30;6.88;;;;;;;;;;5063200;28;20219;-57
2023/09/12 13:21:35;;;;;;;14.43;7.47;;;;;;;;;;5071652;28;20318;-60
2023/09/12 13:24:02;;;;;;;13.73;6.93;;;;;;;;;;5072038;28;20219;-57
2023/09/12 13:26:30;;;;;;;10.10;6.82;;;;;;;;;;5071348;28;20562;-60
2023/09/12 13:28:58;;;;;;;9.80;6.88;;;;;;;;;;5071640;28;20218;-59
2023/09/12 13:31:25;;;;;;;10.85;6.90;;;;;;;;;;5071690;28;20619;-57
2023/09/12 13:33:52;;;;;;;9.55;6.80;;;;;;;;;;5072470;28;20223;-56
2023/09/12 13:36:19;;;;;;;11.70;6.72;;;;;;;;;;5070300;28;20245;-57
2023/09/12 13:38:48;;;;;;;9.73;6.97;;;;;;;;;;5069489;28;20587;-57
2023/09/12 13:41:15;;;;;;;13.13;7.55;;;;;;;;;;5076431;28;20257;-56
2023/09/12 13:43:45;;;;;;;14.27;7.32;;;;;;;;;;5076440;28;20310;-56
2023/09/12 13:46:12;;;;;;;8.88;6.60;;;;;;;;;;5076253;28;20222;-58
2023/09/12 13:48:40;;;;;;;10.75;7.15;;;;;;;;;;5075888;28;20219;-57
2023/09/12 13:51:07;;;;;;;14.93;7.03;;;;;;;;;;5075684;28;20716;-59
2023/09/12 13:53:35;;;;;;;11.32;7.18;;;;;;;;;;5075966;28;20227;-57
2023/09/12 13:56:02;;;;;;;13.55;7.13;;;;;;;;;;5076037;28;20251;-56
2023/09/12 13:58:49;;;;;;;9.98;7.30;;;;;;;;;;5075717;28;20219;-56
2023/09/12 14:01:17;;;;;;;7.75;6.45;;;;;;;;;;5075124;28;20250;-56
2023/09/12 14:04:01;;;;;;;11.45;7.22;;;;;;;;;;5075818;28;20219;-57
2023/09/12 14:06:29;;;;;;;10.18;7.07;;;;;;;;;;5075553;28;20230;-58
2023/09/12 14:08:57;;;;;;;12.45;7.65;;;;;;;;;;5076360;28;20230;-58
2023/09/12 14:11:24;;;;;;;15.20;7.15;;;;;;;;;;5075814;28;20231;-55
2023/09/12 14:14:02;;;;;;;12.07;6.88;;;;;;;;;;5076360;28;20581;-56
2023/09/12 14:16:44;;;;;;;11.23;7.30;;;;;;;;;;5074987;28;20254;-52
2023/09/12 14:19:14;;;;;;;11.85;7.00;;;;;;;;;;5075762;28;20284;-52
2023/09/12 14:21:44;;;;;;;13.27;7.45;;;;;;;;;;5075156;28;20593;-50
2023/09/12 14:24:12;;;;;;;12.05;7.45;;;;;;;;;;5075380;28;20223;-54
2023/09/12 14:26:40;;;;;;;10.93;7.25;;;;;;;;;;5075403;28;20297;-58
2023/09/12 14:29:08;;;;;;;14.07;7.50;;;;;;;;;;5075411;28;20228;-57
2023/09/12 14:31:36;;;;;;;13.38;8.00;;;;;;;;;;5075200;28;20242;-53
2023/09/12 14:34:06;;;;;;;8.88;7.07;;;;;;;;;;5075831;28;20353;-57
2023/09/12 14:36:33;;;;;;;14.75;7.13;;;;;;;;;;5074904;28;20251;-53